Bayview, Texas
Current Conditions -  °F | °C
As of 8:38 AM on Sunday 23 Nov 2014 (Local Time) from KPIL Reporting Station
Moderate Fog Moderate Fog  
Wind Chill: 62°   Ceiling: NA
Heat Index: 62°   Visibility: 0.25mi
Dew Point: 62°   Wind: 8mph
Humidity: 100%   Direction: 210°SSW
Pressure: 29.79"   Gusts: NA
Location:  26.1063°N, 97.4763°W
Report Text: KPIL 231438Z AUTO 21007KT 1/4SM FG 17/17 A2979 RMK AO2 T01670167 $
Loading
Personal Weather Stations






























Interactive Weather Map New forecast layout! Learn more

10-Day Weather Forecast

Advertisements
Track Severe Weather on mobile